Time;durP1;ratioP1;P1;durP2;ratioP2;P2;SDS_P1;SDS_P2;PMS_P1;PMS_P2;Temp;Humidity;BMP_temperature;BMP_pressure;BME280_temperature;BME280_humidity;BME280_pressure;Samples;Min_cycle;Max_cycle;Signal;HPM_P1;HPM_P2
2022/01/21 00:02:06;;;;;;;5.55;1.20;;;;;;;;;;5022502;28;20499;-59
2022/01/21 00:04:36;;;;;;;3.90;1.00;;;;;;;;;;5028016;28;20057;-53
2022/01/21 00:07:04;;;;;;;4.78;1.15;;;;;;;;;;5024421;28;20057;-53
2022/01/21 00:09:30;;;;;;;15.00;1.05;;;;;;;;;;5047014;28;20084;-60
2022/01/21 00:11:57;;;;;;;2.50;0.73;;;;;;;;;;5024680;28;20049;-58
2022/01/21 00:14:24;;;;;;;5.05;0.80;;;;;;;;;;5028615;28;20111;-57
2022/01/21 00:16:51;;;;;;;4.13;0.70;;;;;;;;;;5022779;28;20056;-56
2022/01/21 00:19:18;;;;;;;4.72;0.80;;;;;;;;;;5020148;28;20060;-60
2022/01/21 00:30:20;;;;;;;7.55;0.93;;;;;;;;;;5044482;28;20064;-58
2022/01/21 00:32:47;;;;;;;6.85;0.70;;;;;;;;;;5038750;28;20170;-54
2022/01/21 00:35:15;;;;;;;5.78;0.77;;;;;;;;;;5039395;28;20045;-55
2022/01/21 00:37:41;;;;;;;6.93;0.95;;;;;;;;;;5041380;28;20060;-57
2022/01/21 00:40:10;;;;;;;4.95;0.85;;;;;;;;;;5046638;28;20044;-57
2022/01/21 00:43:07;;;;;;;5.70;1.13;;;;;;;;;;5041029;28;20046;-56
2022/01/21 00:45:35;;;;;;;4.97;0.82;;;;;;;;;;5047906;28;20102;-58
2022/01/21 00:48:01;;;;;;;3.90;0.80;;;;;;;;;;5051513;28;20057;-60
2022/01/21 00:50:28;;;;;;;7.10;0.80;;;;;;;;;;5044852;28;20054;-56
2022/01/21 00:52:55;;;;;;;3.60;0.70;;;;;;;;;;5021190;28;20140;-61
2022/01/21 00:55:24;;;;;;;6.53;0.88;;;;;;;;;;5046444;28;20103;-58
2022/01/21 00:57:51;;;;;;;3.13;0.82;;;;;;;;;;5028146;28;20053;-59
2022/01/21 01:00:20;;;;;;;6.53;0.90;;;;;;;;;;5035059;28;20061;-57
2022/01/21 01:02:47;;;;;;;3.13;0.80;;;;;;;;;;5040042;28;20085;-58
2022/01/21 01:05:14;;;;;;;7.88;0.95;;;;;;;;;;5046847;28;20049;-60
2022/01/21 01:07:41;;;;;;;7.35;1.23;;;;;;;;;;5041250;28;20056;-57
2022/01/21 01:10:11;;;;;;;5.70;1.00;;;;;;;;;;5047350;28;20134;-61
2022/01/21 01:12:52;;;;;;;5.28;0.82;;;;;;;;;;5046411;28;20071;-56
2022/01/21 01:20:43;;;;;;;6.65;1.10;;;;;;;;;;5026010;28;20077;-56
2022/01/21 01:23:22;;;;;;;5.47;1.00;;;;;;;;;;5025537;28;20057;-59
2022/01/21 01:28:36;;;;;;;10.68;1.55;;;;;;;;;;5039335;28;20057;-59
2022/01/21 01:31:03;;;;;;;12.02;1.75;;;;;;;;;;5046326;28;20067;-56
2022/01/21 01:33:36;;;;;;;5.95;1.27;;;;;;;;;;5045850;28;20049;-58
2022/01/21 01:36:03;;;;;;;13.32;1.77;;;;;;;;;;5044202;28;20140;-56
2022/01/21 01:38:48;;;;;;;11.88;1.55;;;;;;;;;;5046124;28;20053;-56
2022/01/21 01:41:18;;;;;;;9.32;1.23;;;;;;;;;;5044421;28;20053;-57
2022/01/21 01:49:29;;;;;;;6.40;1.10;;;;;;;;;;5025750;28;20046;-61
2022/01/21 01:51:57;;;;;;;10.15;1.20;;;;;;;;;;5047301;28;20056;-59
2022/01/21 01:54:24;;;;;;;9.68;1.25;;;;;;;;;;5044695;28;20049;-54
2022/01/21 01:56:51;;;;;;;4.72;1.17;;;;;;;;;;5043130;28;20045;-58
2022/01/21 01:59:20;;;;;;;7.43;1.23;;;;;;;;;;5045624;28;20048;-55
2022/01/21 02:01:51;;;;;;;10.48;1.15;;;;;;;;;;5040449;28;20052;-61
2022/01/21 02:04:17;;;;;;;12.60;1.33;;;;;;;;;;5045618;28;20115;-61
2022/01/21 02:06:44;;;;;;;10.38;1.30;;;;;;;;;;5039779;28;20067;-60
2022/01/21 02:09:10;;;;;;;13.68;1.33;;;;;;;;;;5044054;28;20106;-57
2022/01/21 02:11:37;;;;;;;8.77;0.98;;;;;;;;;;5039735;28;20057;-61
2022/01/21 02:14:08;;;;;;;5.32;0.80;;;;;;;;;;5031975;28;20109;-59
2022/01/21 02:16:45;;;;;;;7.40;1.10;;;;;;;;;;5032734;28;20055;-58
2022/01/21 02:21:57;;;;;;;5.20;0.82;;;;;;;;;;5041162;28;20053;-62
2022/01/21 02:24:45;;;;;;;2.55;0.57;;;;;;;;;;5047756;28;20049;-57
2022/01/21 02:27:12;;;;;;;10.18;1.05;;;;;;;;;;5041486;28;20047;-61
2022/01/21 02:29:47;;;;;;;5.07;0.68;;;;;;;;;;5047655;28;20052;-62
2022/01/21 02:32:14;;;;;;;6.57;0.93;;;;;;;;;;5039605;28;20106;-60
2022/01/21 02:34:41;;;;;;;4.50;0.98;;;;;;;;;;5045711;28;20060;-62
2022/01/21 02:37:10;;;;;;;2.65;0.68;;;;;;;;;;5040390;28;20083;-60
2022/01/21 02:39:36;;;;;;;10.98;1.85;;;;;;;;;;5046108;28;20073;-57
2022/01/21 02:42:03;;;;;;;3.38;0.80;;;;;;;;;;5039565;28;20100;-56
2022/01/21 02:44:30;;;;;;;8.20;1.25;;;;;;;;;;5046109;28;20072;-61
2022/01/21 02:46:58;;;;;;;5.50;0.85;;;;;;;;;;5031463;28;20597;-59
2022/01/21 02:49:25;;;;;;;;;;;;;;;;;;5048464;28;20049;-52
2022/01/21 02:51:52;;;;;;;3.17;0.65;;;;;;;;;;5057375;28;19925;-59
2022/01/21 02:54:21;;;;;;;8.88;1.20;;;;;;;;;;5026537;28;20048;-61
2022/01/21 02:56:48;;;;;;;9.30;1.25;;;;;;;;;;5036058;28;20116;-52
2022/01/21 02:59:15;;;;;;;4.95;1.00;;;;;;;;;;5040905;28;20073;-59
2022/01/21 03:01:42;;;;;;;8.25;0.90;;;;;;;;;;5042856;28;20056;-59
2022/01/21 03:04:12;;;;;;;2.38;0.60;;;;;;;;;;5051969;28;20075;-59
2022/01/21 03:06:39;;;;;;;4.50;0.82;;;;;;;;;;5044844;28;20053;-57
2022/01/21 03:09:06;;;;;;;8.07;0.70;;;;;;;;;;5039125;28;20056;-60
2022/01/21 03:11:34;;;;;;;5.05;0.65;;;;;;;;;;5048110;28;20114;-58
2022/01/21 03:14:01;;;;;;;4.60;0.80;;;;;;;;;;5042845;28;20049;-58
2022/01/21 03:16:27;;;;;;;8.63;1.20;;;;;;;;;;5048863;28;20053;-59
2022/01/21 03:18:54;;;;;;;7.68;0.93;;;;;;;;;;5042407;28;20053;-60
2022/01/21 03:21:21;;;;;;;5.47;1.10;;;;;;;;;;5048898;28;20117;-58
2022/01/21 03:23:49;;;;;;;7.88;0.80;;;;;;;;;;5042626;28;20429;-57
2022/01/21 03:26:16;;;;;;;4.35;1.00;;;;;;;;;;5048535;28;20056;-59
2022/01/21 03:28:48;;;;;;;4.22;0.95;;;;;;;;;;5042824;28;20045;-58
2022/01/21 03:31:14;;;;;;;;;;;;;;;;;;5049950;28;20080;-57
2022/01/21 03:33:40;;;;;;;4.45;0.68;;;;;;;;;;5060600;28;19928;-60
2022/01/21 03:36:08;;;;;;;4.85;0.98;;;;;;;;;;5066259;28;20064;-58
2022/01/21 03:38:35;;;;;;;6.57;1.10;;;;;;;;;;5044784;28;20071;-58
2022/01/21 03:41:02;;;;;;;2.97;0.70;;;;;;;;;;5051431;28;20073;-55
2022/01/21 03:43:29;;;;;;;5.68;1.10;;;;;;;;;;5051520;28;20076;-57
2022/01/21 03:46:01;;;;;;;7.05;1.00;;;;;;;;;;5045456;28;20049;-56
2022/01/21 03:48:28;;;;;;;3.30;0.82;;;;;;;;;;5050908;28;20071;-58
2022/01/21 03:50:56;;;;;;;2.65;0.70;;;;;;;;;;5041219;28;20052;-55
2022/01/21 03:53:22;;;;;;;9.80;1.43;;;;;;;;;;5050119;28;20053;-57
2022/01/21 03:55:50;;;;;;;4.18;0.85;;;;;;;;;;5044037;28;20311;-55
2022/01/21 03:58:16;;;;;;;2.70;0.60;;;;;;;;;;5067695;28;20041;-59
2022/01/21 04:00:44;;;;;;;3.67;1.08;;;;;;;;;;5044992;28;20056;-57
2022/01/21 04:03:12;;;;;;;6.55;0.63;;;;;;;;;;5050232;28;20053;-61
2022/01/21 04:05:39;;;;;;;3.20;0.80;;;;;;;;;;5043497;28;20084;-57
2022/01/21 04:08:06;;;;;;;3.25;0.63;;;;;;;;;;5049565;28;20104;-54
2022/01/21 04:10:35;;;;;;;6.15;0.68;;;;;;;;;;5043999;28;20088;-55
2022/01/21 04:13:02;;;;;;;3.35;0.73;;;;;;;;;;5049653;28;20045;-56
2022/01/21 04:15:29;;;;;;;8.98;0.85;;;;;;;;;;5059412;28;20122;-57
2022/01/21 04:17:55;;;;;;;2.47;0.60;;;;;;;;;;5051392;28;20049;-53
2022/01/21 04:20:23;;;;;;;2.65;0.65;;;;;;;;;;5045651;28;21317;-61
2022/01/21 04:22:49;;;;;;;2.10;0.40;;;;;;;;;;5049416;28;20053;-60
2022/01/21 04:25:16;;;;;;;7.07;0.82;;;;;;;;;;5046363;28;20057;-59
2022/01/21 04:27:43;;;;;;;10.35;0.95;;;;;;;;;;5062117;28;20057;-62
2022/01/21 04:30:10;;;;;;;3.05;0.73;;;;;;;;;;5050015;28;20059;-57
2022/01/21 04:32:36;;;;;;;7.85;0.75;;;;;;;;;;5042542;28;20057;-57
2022/01/21 04:35:04;;;;;;;2.92;0.68;;;;;;;;;;5048111;28;20045;-60
2022/01/21 04:37:31;;;;;;;6.22;0.60;;;;;;;;;;5041879;28;20057;-61
2022/01/21 04:40:04;;;;;;;5.83;0.97;;;;;;;;;;5047904;28;20061;-59
2022/01/21 04:48:00;;;;;;;8.25;1.33;;;;;;;;;;5040771;28;20048;-53
2022/01/21 04:50:27;;;;;;;4.97;1.20;;;;;;;;;;5047762;28;20073;-54
2022/01/21 04:52:55;;;;;;;4.57;1.00;;;;;;;;;;5041200;28;20106;-54
2022/01/21 04:55:23;;;;;;;4.60;0.85;;;;;;;;;;5047081;28;20053;-57
2022/01/21 04:57:49;;;;;;;3.60;0.80;;;;;;;;;;5030385;28;20053;-58
2022/01/21 05:00:16;;;;;;;2.47;0.40;;;;;;;;;;5028740;28;20065;-59
2022/01/21 05:02:43;;;;;;;4.88;1.00;;;;;;;;;;5038394;28;20130;-56
2022/01/21 05:05:10;;;;;;;6.50;0.90;;;;;;;;;;5047113;28;20114;-53
2022/01/21 05:07:39;;;;;;;5.57;0.85;;;;;;;;;;5041222;28;20110;-55
2022/01/21 05:10:08;;;;;;;5.78;0.60;;;;;;;;;;5047574;28;20045;-54
2022/01/21 05:12:35;;;;;;;2.22;0.40;;;;;;;;;;5039637;28;20049;-56
2022/01/21 05:15:15;;;;;;;2.00;0.60;;;;;;;;;;5027236;28;20045;-56
2022/01/21 05:17:48;;;;;;;2.75;0.50;;;;;;;;;;5025591;28;20095;-60
2022/01/21 05:20:14;;;;;;;6.75;0.60;;;;;;;;;;5046685;28;20052;-55
2022/01/21 05:22:41;;;;;;;6.57;0.80;;;;;;;;;;5040332;28;20059;-57
2022/01/21 05:25:16;;;;;;;7.03;1.17;;;;;;;;;;5045778;28;20072;-56
2022/01/21 05:27:44;;;;;;;6.28;0.52;;;;;;;;;;5043021;28;20053;-54
2022/01/21 05:30:11;;;;;;;5.53;0.60;;;;;;;;;;5043923;28;20120;-52
2022/01/21 05:32:37;;;;;;;1.33;0.55;;;;;;;;;;5046446;28;20076;-54
2022/01/21 05:35:05;;;;;;;5.45;0.57;;;;;;;;;;5041537;28;20037;-59
2022/01/21 05:37:31;;;;;;;7.53;0.75;;;;;;;;;;5048278;28;20063;-50
2022/01/21 05:39:58;;;;;;;5.75;0.73;;;;;;;;;;5041198;28;22234;-59
2022/01/21 05:42:26;;;;;;;4.63;0.85;;;;;;;;;;5047901;28;20056;-60
2022/01/21 05:47:37;;;;;;;5.72;0.80;;;;;;;;;;5047825;28;20053;-50
2022/01/21 05:50:04;;;;;;;2.30;0.47;;;;;;;;;;5040670;28;20066;-61
2022/01/21 05:52:36;;;;;;;7.13;0.98;;;;;;;;;;5046474;28;20053;-59
2022/01/21 05:55:03;;;;;;;3.75;0.90;;;;;;;;;;5041238;28;20057;-56
2022/01/21 05:57:31;;;;;;;6.60;1.90;;;;;;;;;;5046802;28;20060;-55
2022/01/21 05:59:58;;;;;;;7.30;2.00;;;;;;;;;;5036908;28;20053;-53
2022/01/21 06:02:24;;;;;;;6.38;1.85;;;;;;;;;;5042294;28;20371;-53
2022/01/21 06:04:51;;;;;;;1.40;0.63;;;;;;;;;;5038821;28;20067;-57
2022/01/21 06:07:17;;;;;;;2.05;0.63;;;;;;;;;;5060108;28;20063;-59
2022/01/21 06:09:44;;;;;;;5.07;0.70;;;;;;;;;;5030605;28;20061;-53
2022/01/21 06:12:11;;;;;;;6.45;1.13;;;;;;;;;;5043276;28;20140;-55
2022/01/21 06:14:39;;;;;;;2.60;0.77;;;;;;;;;;5052306;28;20140;-58
2022/01/21 06:17:06;;;;;;;4.43;0.85;;;;;;;;;;5059211;28;20138;-55
2022/01/21 06:19:33;;;;;;;8.10;0.90;;;;;;;;;;5043416;28;20130;-55
2022/01/21 06:21:59;;;;;;;7.90;1.17;;;;;;;;;;5035662;28;20083;-56
2022/01/21 06:24:27;;;;;;;1.38;0.60;;;;;;;;;;5044728;28;20052;-57
2022/01/21 06:26:59;;;;;;;4.47;0.57;;;;;;;;;;5036577;28;20103;-57
2022/01/21 06:29:25;;;;;;;7.35;1.13;;;;;;;;;;5041931;28;20041;-54
2022/01/21 06:31:53;;;;;;;7.05;1.92;;;;;;;;;;5038087;28;20100;-58
2022/01/21 06:34:20;;;;;;;14.15;3.58;;;;;;;;;;5044164;28;20056;-60
2022/01/21 06:36:46;;;;;;;14.38;3.13;;;;;;;;;;5036121;28;20045;-59
2022/01/21 06:39:13;;;;;;;7.60;2.63;;;;;;;;;;5044201;28;20095;-61
2022/01/21 06:41:40;;;;;;;10.32;2.33;;;;;;;;;;5036361;28;20111;-60
2022/01/21 06:44:07;;;;;;;7.47;2.08;;;;;;;;;;5043967;28;20139;-53
2022/01/21 06:46:34;;;;;;;8.95;1.15;;;;;;;;;;5041730;28;20049;-56
2022/01/21 06:49:03;;;;;;;3.30;1.00;;;;;;;;;;5039648;28;20079;-56
2022/01/21 06:51:30;;;;;;;19.35;4.75;;;;;;;;;;5040622;28;20324;-56
2022/01/21 06:53:57;;;;;;;11.57;2.92;;;;;;;;;;5047677;28;20107;-61
2022/01/21 06:56:23;;;;;;;8.32;2.10;;;;;;;;;;5044071;28;20070;-58
2022/01/21 06:58:50;;;;;;;8.77;1.60;;;;;;;;;;5050047;28;20061;-54
2022/01/21 07:01:17;;;;;;;8.40;1.60;;;;;;;;;;5048993;28;20049;-55
2022/01/21 07:03:44;;;;;;;5.43;1.13;;;;;;;;;;5044692;28;20057;-59
2022/01/21 07:06:12;;;;;;;6.57;0.90;;;;;;;;;;5047169;28;20053;-55
2022/01/21 07:08:39;;;;;;;1.50;0.70;;;;;;;;;;5042985;28;20079;-52
2022/01/21 07:11:05;;;;;;;4.05;1.00;;;;;;;;;;5049503;28;20365;-56
2022/01/21 07:13:33;;;;;;;4.85;0.90;;;;;;;;;;5043457;28;20136;-57
2022/01/21 07:15:59;;;;;;;1.70;0.65;;;;;;;;;;5065844;28;20056;-53
2022/01/21 07:18:27;;;;;;;2.85;0.93;;;;;;;;;;5043960;28;20095;-57
2022/01/21 07:20:54;;;;;;;5.40;0.77;;;;;;;;;;5049691;28;20052;-54
2022/01/21 07:23:23;;;;;;;7.80;1.00;;;;;;;;;;5044000;28;20052;-52
2022/01/21 07:25:53;;;;;;;2.17;0.75;;;;;;;;;;5050166;28;20099;-53
2022/01/21 07:28:19;;;;;;;5.82;1.30;;;;;;;;;;5044700;28;20053;-55
2022/01/21 07:30:46;;;;;;;4.57;1.33;;;;;;;;;;5051767;28;20057;-56
2022/01/21 07:33:13;;;;;;;4.93;1.45;;;;;;;;;;5043532;28;20045;-58
2022/01/21 07:35:42;;;;;;;5.55;1.30;;;;;;;;;;5047302;28;20056;-60
2022/01/21 07:38:08;;;;;;;5.20;1.00;;;;;;;;;;5042995;28;20037;-58
2022/01/21 07:40:37;;;;;;;6.22;1.35;;;;;;;;;;5048682;28;20118;-53
2022/01/21 07:43:03;;;;;;;3.83;1.15;;;;;;;;;;5042760;28;20045;-52
2022/01/21 07:45:30;;;;;;;4.93;1.40;;;;;;;;;;5048597;28;20059;-57
2022/01/21 07:47:57;;;;;;;4.35;0.90;;;;;;;;;;5048145;28;20049;-60
2022/01/21 07:50:23;;;;;;;4.78;1.48;;;;;;;;;;5043169;28;20048;-58
2022/01/21 07:52:50;;;;;;;5.47;1.67;;;;;;;;;;5047453;28;20068;-57
2022/01/21 07:55:16;;;;;;;2.58;1.05;;;;;;;;;;5042094;28;20057;-52
2022/01/21 07:57:44;;;;;;;6.60;1.35;;;;;;;;;;5048183;28;20077;-54
2022/01/21 08:00:12;;;;;;;4.53;1.38;;;;;;;;;;5042825;28;20117;-58
2022/01/21 08:02:38;;;;;;;4.00;1.40;;;;;;;;;;5048576;28;20072;-54
2022/01/21 08:05:06;;;;;;;2.38;0.98;;;;;;;;;;5042832;28;20112;-59
2022/01/21 08:07:32;;;;;;;5.22;1.58;;;;;;;;;;5047303;28;20061;-57
2022/01/21 08:09:58;;;;;;;6.18;1.42;;;;;;;;;;5032473;28;20061;-52
2022/01/21 08:12:25;;;;;;;5.05;1.35;;;;;;;;;;5027240;28;20081;-58
2022/01/21 08:14:55;;;;;;;10.70;1.20;;;;;;;;;;5019331;28;20084;-55
2022/01/21 08:17:22;;;;;;;3.65;1.25;;;;;;;;;;5047897;28;20061;-55
2022/01/21 08:19:49;;;;;;;8.20;2.80;;;;;;;;;;5042387;28;20053;-60
2022/01/21 08:22:15;;;;;;;14.60;4.55;;;;;;;;;;5047838;28;20119;-60
2022/01/21 08:24:42;;;;;;;13.57;4.88;;;;;;;;;;5042650;28;20070;-53
2022/01/21 08:27:09;;;;;;;10.38;3.10;;;;;;;;;;5047788;28;20072;-59
2022/01/21 08:29:35;;;;;;;9.55;2.80;;;;;;;;;;5047565;28;20148;-54
2022/01/21 08:32:03;;;;;;;6.00;2.28;;;;;;;;;;5041527;28;20126;-56
2022/01/21 08:34:34;;;;;;;10.23;1.90;;;;;;;;;;5047309;28;20168;-56
2022/01/21 08:37:01;;;;;;;5.00;1.10;;;;;;;;;;5042530;28;20060;-56
2022/01/21 08:39:27;;;;;;;3.78;1.00;;;;;;;;;;5047883;28;20056;-56
2022/01/21 08:41:54;;;;;;;5.40;1.23;;;;;;;;;;5041636;28;20072;-54
2022/01/21 08:44:21;;;;;;;5.40;1.70;;;;;;;;;;5047306;28;20068;-58
2022/01/21 08:46:47;;;;;;;2.67;1.05;;;;;;;;;;5041934;28;20053;-54
2022/01/21 08:49:18;;;;;;;8.48;1.33;;;;;;;;;;5047746;28;20369;-53
2022/01/21 08:51:50;;;;;;;5.45;1.23;;;;;;;;;;5041533;28;20045;-53
2022/01/21 08:54:18;;;;;;;4.28;1.45;;;;;;;;;;5048414;28;20135;-52
2022/01/21 08:56:48;;;;;;;3.22;1.30;;;;;;;;;;5041625;28;20045;-51
2022/01/21 08:59:16;;;;;;;6.18;1.30;;;;;;;;;;5048930;28;20136;-55
2022/01/21 09:01:43;;;;;;;5.78;1.45;;;;;;;;;;5041420;28;20052;-55
2022/01/21 09:04:10;;;;;;;4.00;1.35;;;;;;;;;;5047040;28;20182;-55
2022/01/21 09:06:38;;;;;;;9.13;1.60;;;;;;;;;;5041105;28;20142;-55
2022/01/21 09:09:05;;;;;;;4.75;1.10;;;;;;;;;;5046378;28;20102;-53
2022/01/21 09:11:31;;;;;;;4.60;1.15;;;;;;;;;;5041625;28;20053;-53
2022/01/21 09:13:59;;;;;;;8.00;1.10;;;;;;;;;;5033895;28;20049;-56
2022/01/21 09:16:25;;;;;;;3.97;1.08;;;;;;;;;;5027164;28;20056;-56
2022/01/21 09:18:55;;;;;;;3.63;1.20;;;;;;;;;;5039586;28;20102;-55
2022/01/21 09:21:22;;;;;;;13.52;1.50;;;;;;;;;;5046782;28;20044;-56
2022/01/21 09:23:51;;;;;;;6.22;1.40;;;;;;;;;;5040199;28;20056;-52
2022/01/21 09:26:19;;;;;;;7.75;1.27;;;;;;;;;;5047136;28;20068;-53
2022/01/21 09:28:46;;;;;;;4.25;1.00;;;;;;;;;;5041042;28;20055;-53
2022/01/21 09:31:13;;;;;;;4.40;1.27;;;;;;;;;;5046595;28;20084;-55
2022/01/21 09:33:40;;;;;;;6.85;1.20;;;;;;;;;;5040893;28;20048;-55
2022/01/21 09:36:07;;;;;;;8.18;1.40;;;;;;;;;;5046656;28;20088;-56
2022/01/21 09:38:34;;;;;;;3.38;1.10;;;;;;;;;;5040832;28;20044;-56
2022/01/21 09:41:02;;;;;;;6.30;1.50;;;;;;;;;;5046350;28;20079;-53
2022/01/21 09:43:29;;;;;;;11.93;1.60;;;;;;;;;;5039853;28;20057;-56
2022/01/21 09:45:56;;;;;;;8.07;1.10;;;;;;;;;;5046399;28;20064;-52
2022/01/21 09:48:26;;;;;;;3.13;1.13;;;;;;;;;;5040318;28;20045;-52
2022/01/21 09:50:54;;;;;;;2.00;0.90;;;;;;;;;;5046539;28;20060;-54
2022/01/21 09:53:25;;;;;;;5.35;1.20;;;;;;;;;;5040230;28;20511;-58
2022/01/21 09:55:52;;;;;;;5.75;1.30;;;;;;;;;;5044905;28;20061;-55
2022/01/21 09:58:21;;;;;;;3.55;0.98;;;;;;;;;;5041313;28;20076;-55
2022/01/21 10:00:47;;;;;;;6.32;1.17;;;;;;;;;;5047539;28;20049;-58
2022/01/21 10:03:14;;;;;;;3.17;1.13;;;;;;;;;;5046446;28;20053;-55
2022/01/21 10:05:44;;;;;;;3.63;1.20;;;;;;;;;;5040519;28;20053;-56
2022/01/21 10:08:11;;;;;;;3.33;1.17;;;;;;;;;;5046867;28;20079;-54
2022/01/21 10:10:40;;;;;;;3.90;1.17;;;;;;;;;;5040119;28;20099;-57
2022/01/21 10:13:08;;;;;;;12.40;1.60;;;;;;;;;;5040848;28;20057;-51
2022/01/21 10:15:37;;;;;;;5.85;0.98;;;;;;;;;;5035926;28;20048;-56
2022/01/21 10:18:05;;;;;;;6.20;1.10;;;;;;;;;;5047412;28;20055;-56
2022/01/21 10:20:32;;;;;;;3.30;1.15;;;;;;;;;;5041091;28;20114;-53
2022/01/21 10:23:00;;;;;;;5.35;1.23;;;;;;;;;;5047634;28;20051;-56
2022/01/21 10:25:31;;;;;;;2.40;0.85;;;;;;;;;;5042090;28;20053;-58
2022/01/21 10:28:14;;;;;;;7.07;1.20;;;;;;;;;;5046366;28;20057;-59
2022/01/21 10:30:43;;;;;;;13.02;1.58;;;;;;;;;;5030843;28;20061;-53
2022/01/21 10:33:21;;;;;;;10.45;1.35;;;;;;;;;;5062645;28;20079;-55
2022/01/21 10:35:50;;;;;;;5.18;1.10;;;;;;;;;;5040525;28;20037;-58
2022/01/21 10:38:18;;;;;;;4.45;1.25;;;;;;;;;;5046322;28;20072;-56
2022/01/21 10:40:45;;;;;;;7.50;1.33;;;;;;;;;;5039436;28;20045;-58
2022/01/21 10:43:12;;;;;;;5.28;1.30;;;;;;;;;;5045458;28;20084;-57
2022/01/21 10:45:54;;;;;;;9.60;1.30;;;;;;;;;;5039783;28;20053;-57
2022/01/21 10:48:21;;;;;;;6.78;1.02;;;;;;;;;;5045605;28;20056;-59
2022/01/21 10:51:07;;;;;;;8.73;1.52;;;;;;;;;;5039228;28;20044;-61
2022/01/21 10:53:34;;;;;;;7.38;1.30;;;;;;;;;;5044870;28;20052;-57
2022/01/21 10:56:09;;;;;;;6.53;1.05;;;;;;;;;;5039188;28;20054;-58
2022/01/21 10:58:38;;;;;;;11.07;1.58;;;;;;;;;;5044771;28;20048;-59
2022/01/21 11:01:11;;;;;;;3.42;1.13;;;;;;;;;;5037251;28;20045;-61
2022/01/21 11:03:40;;;;;;;8.23;1.20;;;;;;;;;;5044816;28;20099;-60
2022/01/21 11:06:12;;;;;;;9.57;1.40;;;;;;;;;;5039578;28;20057;-54
2022/01/21 11:08:38;;;;;;;8.05;1.38;;;;;;;;;;5045065;28;20080;-61
2022/01/21 11:11:05;;;;;;;11.93;1.35;;;;;;;;;;5040849;28;20099;-59
2022/01/21 11:13:36;;;;;;;9.55;1.27;;;;;;;;;;5024089;28;20065;-60
2022/01/21 11:16:09;;;;;;;5.97;1.42;;;;;;;;;;5041927;28;20077;-58
2022/01/21 11:18:49;;;;;;;4.28;1.50;;;;;;;;;;5057599;28;20053;-59
2022/01/21 11:21:15;;;;;;;8.63;1.85;;;;;;;;;;5046310;28;20073;-55
2022/01/21 11:23:42;;;;;;;6.55;1.50;;;;;;;;;;5039126;28;20068;-58
2022/01/21 11:26:10;;;;;;;9.13;1.70;;;;;;;;;;5044770;28;20041;-55
2022/01/21 11:28:40;;;;;;;2.95;0.90;;;;;;;;;;5038991;28;20067;-60
2022/01/21 11:31:09;;;;;;;6.20;1.10;;;;;;;;;;5046378;28;20057;-58
2022/01/21 11:33:35;;;;;;;;;;;;;;;;;;5043608;28;20057;-57
2022/01/21 11:36:03;;;;;;;9.80;1.38;;;;;;;;;;5048880;28;19936;-56
2022/01/21 11:38:31;;;;;;;6.50;1.02;;;;;;;;;;5043402;28;20055;-53
2022/01/21 11:40:59;;;;;;;5.43;1.08;;;;;;;;;;5049156;28;20053;-59
2022/01/21 11:43:26;;;;;;;7.78;1.10;;;;;;;;;;5042597;28;20056;-58
2022/01/21 11:46:17;;;;;;;8.57;1.40;;;;;;;;;;5049233;28;20079;-59
2022/01/21 11:48:52;;;;;;;11.63;1.30;;;;;;;;;;5043137;28;20053;-56
2022/01/21 11:51:20;;;;;;;7.18;1.10;;;;;;;;;;5049266;28;20057;-57
2022/01/21 11:53:48;;;;;;;12.88;1.45;;;;;;;;;;5044419;28;20099;-57
2022/01/21 11:56:32;;;;;;;3.30;0.90;;;;;;;;;;5048861;28;20057;-50
2022/01/21 11:59:04;;;;;;;13.55;1.17;;;;;;;;;;5042334;28;20053;-56
2022/01/21 12:01:36;;;;;;;12.75;1.40;;;;;;;;;;5026967;28;20049;-56
2022/01/21 12:04:04;;;;;;;10.35;1.38;;;;;;;;;;5022540;28;20053;-52
2022/01/21 12:06:32;;;;;;;3.05;1.20;;;;;;;;;;5028258;28;20060;-57
2022/01/21 12:09:00;;;;;;;7.68;1.30;;;;;;;;;;5022205;28;20194;-53
2022/01/21 12:11:30;;;;;;;4.15;1.17;;;;;;;;;;5026593;28;20132;-53
2022/01/21 12:13:56;;;;;;;7.00;1.20;;;;;;;;;;4997514;28;20057;-51
2022/01/21 12:16:47;;;;;;;9.65;1.15;;;;;;;;;;5031387;28;20395;-56
2022/01/21 12:19:22;;;;;;;8.43;1.67;;;;;;;;;;5042899;28;20126;-60
2022/01/21 12:21:53;;;;;;;9.50;2.10;;;;;;;;;;5040471;28;20049;-56
2022/01/21 12:24:48;;;;;;;11.60;1.75;;;;;;;;;;5038672;28;20057;-56
2022/01/21 12:27:15;;;;;;;10.48;1.50;;;;;;;;;;4994316;28;20128;-58
2022/01/21 12:29:41;;;;;;;4.85;1.30;;;;;;;;;;5041936;28;20132;-61
2022/01/21 12:32:16;;;;;;;13.20;1.83;;;;;;;;;;5047566;28;20087;-56
2022/01/21 12:35:02;;;;;;;6.68;1.27;;;;;;;;;;5041868;28;20056;-56
2022/01/21 12:37:40;;;;;;;3.42;1.20;;;;;;;;;;5047352;28;20115;-56
2022/01/21 12:40:09;;;;;;;8.65;1.63;;;;;;;;;;5042072;28;20048;-55
2022/01/21 12:42:36;;;;;;;10.55;1.58;;;;;;;;;;5048079;28;20060;-55
2022/01/21 12:45:21;;;;;;;8.52;1.45;;;;;;;;;;5057489;28;20574;-55
2022/01/21 12:47:48;;;;;;;13.57;1.60;;;;;;;;;;5048028;28;20118;-56
2022/01/21 12:50:24;;;;;;;3.78;1.00;;;;;;;;;;5042397;28;20053;-55
2022/01/21 12:52:55;;;;;;;9.57;1.27;;;;;;;;;;5047524;28;20060;-56
2022/01/21 12:58:07;;;;;;;10.23;1.45;;;;;;;;;;5046842;28;20053;-57
2022/01/21 13:00:33;;;;;;;5.00;0.90;;;;;;;;;;5041564;28;20119;-59
2022/01/21 13:03:05;;;;;;;9.70;1.63;;;;;;;;;;5047155;28;20076;-57
2022/01/21 13:05:37;;;;;;;5.50;1.23;;;;;;;;;;5042371;28;20477;-57
2022/01/21 13:08:10;;;;;;;3.70;1.20;;;;;;;;;;5027254;28;20168;-54
2022/01/21 13:10:37;;;;;;;1.75;0.77;;;;;;;;;;5027257;28;20052;-56
2022/01/21 13:13:22;;;;;;;5.20;0.90;;;;;;;;;;5041352;28;20088;-56
2022/01/21 13:15:55;;;;;;;9.07;1.40;;;;;;;;;;5061730;28;20045;-58
2022/01/21 13:18:24;;;;;;;4.55;0.93;;;;;;;;;;5062544;28;20040;-61
2022/01/21 13:20:52;;;;;;;9.10;1.50;;;;;;;;;;5049612;28;20045;-59
2022/01/21 13:23:35;;;;;;;9.05;1.23;;;;;;;;;;5042812;28;20045;-58
2022/01/21 13:26:13;;;;;;;5.45;1.05;;;;;;;;;;5046098;28;20106;-58
2022/01/21 13:28:53;;;;;;;4.90;1.13;;;;;;;;;;5038721;28;20048;-58
2022/01/21 13:31:19;;;;;;;2.15;0.85;;;;;;;;;;5046849;28;20055;-59
2022/01/21 13:33:46;;;;;;;5.85;0.93;;;;;;;;;;5040195;28;20055;-59
2022/01/21 13:36:13;;;;;;;2.97;1.10;;;;;;;;;;5042836;28;20080;-59
2022/01/21 13:38:41;;;;;;;6.65;0.85;;;;;;;;;;5021192;28;20084;-59
2022/01/21 13:41:12;;;;;;;6.82;0.90;;;;;;;;;;5026602;28;20061;-58
2022/01/21 13:43:41;;;;;;;6.85;0.88;;;;;;;;;;5020585;28;20053;-56
2022/01/21 13:46:15;;;;;;;9.32;1.00;;;;;;;;;;5026904;28;20057;-58
2022/01/21 13:48:42;;;;;;;14.07;1.55;;;;;;;;;;5017595;28;20041;-59
2022/01/21 13:51:08;;;;;;;10.13;1.08;;;;;;;;;;5026834;28;20092;-56
2022/01/21 13:53:38;;;;;;;8.15;1.02;;;;;;;;;;5019342;28;20046;-60
2022/01/21 13:56:08;;;;;;;15.90;1.25;;;;;;;;;;5026091;28;20061;-57
2022/01/21 13:58:40;;;;;;;9.32;1.27;;;;;;;;;;5020782;28;20056;-57
2022/01/21 14:01:09;;;;;;;8.93;1.27;;;;;;;;;;5023970;28;20046;-58
2022/01/21 14:03:37;;;;;;;7.03;1.00;;;;;;;;;;5019547;28;20553;-57
2022/01/21 14:06:05;;;;;;;5.90;1.17;;;;;;;;;;5025873;28;20065;-59
2022/01/21 14:08:32;;;;;;;8.15;1.20;;;;;;;;;;5015994;28;20057;-58
2022/01/21 14:11:01;;;;;;;4.75;0.85;;;;;;;;;;5008807;28;20164;-58
2022/01/21 14:13:31;;;;;;;3.35;0.93;;;;;;;;;;5020138;28;20053;-61
2022/01/21 14:15:58;;;;;;;10.75;1.58;;;;;;;;;;5026566;28;20057;-53
2022/01/21 14:18:28;;;;;;;7.57;0.98;;;;;;;;;;5021046;28;20116;-57
2022/01/21 14:21:02;;;;;;;8.05;1.55;;;;;;;;;;5026617;28;20053;-61
2022/01/21 14:23:31;;;;;;;6.22;1.20;;;;;;;;;;5025651;28;20091;-57
2022/01/21 14:25:58;;;;;;;4.22;1.40;;;;;;;;;;5039146;28;20053;-56
2022/01/21 14:28:39;;;;;;;6.55;0.90;;;;;;;;;;5029483;28;20068;-56
2022/01/21 14:31:06;;;;;;;12.52;1.20;;;;;;;;;;5036794;28;20053;-57
2022/01/21 14:33:39;;;;;;;12.32;1.33;;;;;;;;;;5025510;28;20049;-57
2022/01/21 14:36:16;;;;;;;13.13;1.00;;;;;;;;;;5034726;28;20049;-57
2022/01/21 14:38:46;;;;;;;8.55;1.20;;;;;;;;;;5024389;28;20218;-54
2022/01/21 14:41:16;;;;;;;4.85;1.08;;;;;;;;;;5020069;28;20073;-55
2022/01/21 14:43:51;;;;;;;5.25;1.02;;;;;;;;;;5025427;28;20053;-55
2022/01/21 14:46:25;;;;;;;17.90;1.38;;;;;;;;;;5020013;28;20053;-55
2022/01/21 14:48:56;;;;;;;4.63;0.85;;;;;;;;;;5027263;28;20050;-59
2022/01/21 14:51:32;;;;;;;7.13;1.10;;;;;;;;;;5021423;28;20053;-58
2022/01/21 14:54:10;;;;;;;5.65;0.95;;;;;;;;;;5025505;28;20123;-57
2022/01/21 14:56:37;;;;;;;6.55;1.02;;;;;;;;;;5019537;28;20049;-56
2022/01/21 14:59:13;;;;;;;9.35;0.90;;;;;;;;;;5025659;28;20063;-57
2022/01/21 15:01:55;;;;;;;11.85;1.10;;;;;;;;;;5030715;28;20063;-62
2022/01/21 15:04:22;;;;;;;5.35;1.02;;;;;;;;;;5045832;28;20135;-57
2022/01/21 15:06:48;;;;;;;4.75;1.10;;;;;;;;;;5047197;28;20140;-53
2022/01/21 15:09:15;;;;;;;6.78;1.25;;;;;;;;;;5046191;28;20049;-59
2022/01/21 15:11:57;;;;;;;11.32;1.90;;;;;;;;;;5040212;28;20057;-59
2022/01/21 15:14:26;;;;;;;4.15;0.70;;;;;;;;;;5045395;28;20064;-58
2022/01/21 15:16:53;;;;;;;5.53;0.88;;;;;;;;;;5050586;28;20147;-57
2022/01/21 15:19:20;;;;;;;3.17;0.90;;;;;;;;;;5047954;28;20049;-56
2022/01/21 15:21:50;;;;;;;15.68;1.05;;;;;;;;;;5040347;28;20071;-59
2022/01/21 15:24:17;;;;;;;2.65;0.80;;;;;;;;;;5045107;28;20103;-58
2022/01/21 15:26:44;;;;;;;2.58;0.70;;;;;;;;;;5049209;28;20053;-55
2022/01/21 15:29:10;;;;;;;5.15;1.05;;;;;;;;;;5048386;28;20044;-55
2022/01/21 15:31:39;;;;;;;6.25;1.08;;;;;;;;;;5043347;28;20524;-55